createdAt,value
2022-08-05T00:03:15.599Z,65.58
2022-08-05T00:08:34.149Z,66.12
2022-08-05T00:13:20.896Z,66.38
2022-08-05T00:18:30.915Z,66.50
2022-08-05T00:23:44.362Z,66.99
2022-08-05T00:28:35.991Z,67.33
2022-08-05T00:34:54.676Z,68.18
2022-08-05T00:38:39.820Z,68.93
2022-08-05T00:43:46.688Z,70.20
2022-08-05T00:48:50.575Z,69.99
2022-08-05T00:54:01.218Z,70.08
2022-08-05T00:58:54.489Z,70.65
2022-08-05T01:03:46.113Z,70.35
2022-08-05T01:08:44.599Z,70.97
2022-08-05T01:13:59.174Z,71.61
2022-08-05T01:18:56.628Z,73.05
2022-08-05T01:24:22.213Z,72.88
2022-08-05T01:29:38.148Z,72.88
2022-08-05T01:34:53.062Z,74.77
2022-08-05T01:39:48.519Z,76.03
2022-08-05T01:44:41.385Z,76.28
2022-08-05T01:50:01.994Z,76.61
2022-08-05T01:54:53.166Z,75.25
2022-08-05T01:59:48.421Z,76.23
2022-08-05T02:04:42.665Z,77.20
2022-08-05T02:09:37.926Z,77.21
2022-08-05T02:14:37.498Z,78.14
2022-08-05T02:19:47.355Z,78.52
2022-08-05T02:24:42.589Z,78.62
2022-08-05T02:29:59.474Z,78.65
2022-08-05T02:34:54.521Z,78.88
2022-08-05T02:39:51.479Z,77.84
2022-08-05T02:44:44.853Z,77.96
2022-08-05T02:49:40.446Z,78.29
2022-08-05T02:54:36.127Z,78.04
2022-08-05T02:59:30.592Z,78.67
2022-08-05T03:04:42.602Z,78.27
2022-08-05T03:09:38.112Z,78.25
2022-08-05T03:14:35.382Z,78.25
2022-08-05T03:19:37.518Z,78.25
2022-08-05T03:24:30.784Z,78.89
2022-08-05T03:29:22.819Z,79.10
2022-08-05T03:34:14.688Z,79.44
2022-08-05T03:39:12.917Z,79.40
2022-08-05T03:44:12.120Z,79.11
2022-08-05T03:49:04.113Z,79.58
2022-08-05T03:55:54.206Z,79.58
2022-08-05T03:59:26.213Z,79.24
2022-08-05T04:04:22.283Z,79.55
2022-08-05T04:09:26.143Z,79.84
2022-08-05T04:14:19.465Z,80.12
2022-08-05T04:19:22.344Z,79.93
2022-08-05T04:24:19.204Z,80.06
2022-08-05T04:29:14.302Z,79.71
2022-08-05T04:34:18.874Z,79.65
2022-08-05T04:39:19.447Z,79.11
2022-08-05T04:44:11.577Z,79.51
2022-08-05T04:49:03.222Z,78.54
2022-08-05T04:53:54.851Z,79.40
2022-08-05T04:58:46.810Z,79.10
2022-08-05T05:03:42.365Z,79.47
2022-08-05T05:08:37.260Z,79.20
2022-08-05T05:13:43.154Z,79.96
2022-08-05T05:18:35.260Z,79.78
2022-08-05T05:23:38.767Z,80.05
2022-08-05T05:28:38.990Z,80.49
2022-08-05T05:33:58.807Z,80.72
2022-08-05T05:38:48.282Z,80.96
2022-08-05T05:43:56.646Z,82.71
2022-08-05T05:48:50.614Z,80.42
2022-08-05T05:53:54.174Z,77.90
2022-08-05T05:58:50.310Z,74.94
2022-08-05T06:04:01.895Z,72.96
2022-08-05T06:08:54.121Z,71.44
2022-08-05T06:13:53.788Z,69.20
2022-08-05T06:18:45.954Z,66.33
2022-08-05T06:23:43.660Z,63.67
2022-08-05T06:28:36.956Z,61.84
2022-08-05T06:33:33.409Z,61.28
2022-08-05T06:38:40.649Z,63.04
2022-08-05T06:43:58.163Z,63.52
2022-08-05T06:48:56.141Z,61.45
2022-08-05T06:53:53.625Z,58.24
2022-08-05T06:58:46.764Z,56.16
2022-08-05T07:03:38.541Z,55.23
2022-08-05T07:08:30.608Z,53.97
2022-08-05T07:13:58.822Z,54.21
2022-08-05T07:18:51.699Z,54.24
2022-08-05T07:23:49.777Z,54.92
2022-08-05T07:28:41.787Z,54.52
2022-08-05T07:33:36.971Z,54.08
2022-08-05T07:38:33.696Z,55.08
2022-08-05T07:43:27.049Z,55.25
2022-08-05T07:49:00.967Z,54.83
2022-08-05T07:53:36.843Z,51.90
2022-08-05T07:58:57.636Z,49.98
2022-08-05T08:03:51.290Z,47.67
2022-08-05T08:08:43.090Z,47.77
2022-08-05T08:13:42.832Z,48.11
2022-08-05T08:18:41.297Z,44.27
2022-08-05T08:24:02.529Z,44.81
2022-08-05T08:28:59.549Z,44.98
2022-08-05T08:33:54.139Z,44.91
2022-08-05T08:38:53.424Z,44.42
2022-08-05T08:45:18.223Z,46.12
2022-08-05T08:49:08.288Z,44.70
2022-08-05T08:54:11.133Z,45.25
2022-08-05T08:59:14.642Z,45.44
2022-08-05T09:04:13.062Z,44.89
2022-08-05T09:09:06.305Z,46.08
2022-08-05T09:14:10.133Z,45.92
2022-08-05T09:19:10.159Z,45.80
2022-08-05T09:24:10.185Z,45.35
2022-08-05T09:29:05.847Z,45.98
2022-08-05T09:34:06.226Z,44.32
2022-08-05T09:39:02.324Z,44.25
2022-08-05T09:43:54.550Z,42.51
2022-08-05T09:49:06.491Z,41.84
2022-08-05T09:54:00.443Z,43.82
2022-08-05T09:59:10.076Z,44.41
2022-08-05T10:04:13.801Z,41.10
2022-08-05T10:09:27.987Z,41.33
2022-08-05T10:14:32.128Z,40.09
2022-08-05T10:19:31.942Z,37.78
2022-08-05T10:24:39.793Z,38.62
2022-08-05T10:30:41.568Z,37.49
2022-08-05T10:34:48.838Z,37.85
2022-08-05T10:40:03.354Z,38.08
2022-08-05T10:44:57.931Z,39.04
2022-08-05T10:50:31.834Z,38.98
2022-08-05T10:55:25.338Z,36.40
2022-08-05T11:00:20.829Z,37.16
2022-08-05T11:05:14.628Z,35.07
2022-08-05T11:10:22.582Z,36.18
2022-08-05T11:15:21.522Z,35.08
2022-08-05T11:20:41.613Z,35.91
2022-08-05T11:26:05.669Z,35.33
2022-08-05T11:30:58.710Z,40.25
2022-08-05T11:36:07.659Z,42.22
2022-08-05T11:41:35.021Z,45.19
2022-08-05T11:46:32.430Z,44.29
2022-08-05T11:51:44.439Z,44.41
2022-08-05T11:56:44.974Z,41.45
2022-08-05T12:02:05.647Z,43.39
2022-08-05T12:07:04.652Z,45.87
2022-08-05T12:12:00.846Z,47.20
2022-08-05T12:16:54.348Z,50.71
2022-08-05T12:21:50.967Z,45.78
2022-08-05T12:26:44.548Z,47.01
2022-08-05T12:31:43.797Z,42.81
2022-08-05T12:36:40.402Z,43.57
2022-08-05T12:41:43.688Z,45.21
2022-08-05T12:46:37.247Z,44.93
2022-08-05T12:52:10.740Z,46.59
2022-08-05T12:56:47.017Z,46.53
2022-08-05T13:02:02.060Z,46.08
2022-08-05T13:07:01.050Z,46.15
2022-08-05T13:12:03.792Z,45.93
2022-08-05T13:16:58.870Z,44.84
2022-08-05T13:21:52.534Z,45.06
2022-08-05T13:26:50.701Z,44.22
2022-08-05T13:32:04.394Z,45.01
2022-08-05T13:36:55.429Z,46.00
2022-08-05T13:41:47.076Z,44.54
2022-08-05T13:51:51.525Z,44.63
2022-08-05T13:56:51.651Z,44.96
2022-08-05T14:01:46.450Z,45.85
2022-08-05T14:06:48.266Z,46.11
2022-08-05T14:12:04.114Z,47.36
2022-08-05T14:17:02.383Z,47.02
2022-08-05T14:22:10.245Z,44.56
2022-08-05T14:27:17.579Z,44.25
2022-08-05T14:32:12.389Z,45.74
2022-08-05T14:37:07.873Z,42.43
2022-08-05T14:42:21.069Z,42.62
2022-08-05T14:47:13.721Z,41.41
2022-08-05T14:52:05.459Z,42.66
2022-08-05T14:57:05.207Z,41.43
2022-08-05T15:02:01.710Z,41.49
2022-08-05T15:06:54.736Z,43.75
2022-08-05T15:11:52.424Z,45.24
2022-08-05T15:16:45.350Z,44.12
2022-08-05T15:21:38.690Z,44.48
2022-08-05T15:26:32.293Z,43.85
2022-08-05T15:31:24.099Z,43.04
2022-08-05T15:36:26.669Z,42.79
2022-08-05T15:41:20.730Z,42.45
2022-08-05T15:46:15.133Z,43.79
2022-08-05T15:51:07.653Z,43.57
2022-08-05T15:56:04.118Z,43.52
2022-08-05T16:01:11.896Z,43.73
2022-08-05T16:06:11.198Z,45.20
2022-08-05T16:11:03.478Z,45.60
2022-08-05T16:15:56.326Z,45.20
2022-08-05T16:20:48.047Z,45.10
2022-08-05T16:25:41.655Z,45.20
2022-08-05T16:30:34.252Z,44.12
2022-08-05T16:35:33.581Z,43.93
2022-08-05T16:40:33.733Z,44.69
2022-08-05T16:46:04.378Z,45.13
2022-08-05T16:50:38.102Z,45.72
2022-08-05T16:55:30.759Z,45.04
2022-08-05T17:00:38.993Z,45.93
2022-08-05T17:05:32.027Z,46.03
2022-08-05T17:10:26.508Z,45.47
2022-08-05T17:15:22.554Z,46.18
2022-08-05T17:20:14.755Z,45.18
2022-08-05T17:25:22.195Z,46.57
2022-08-05T17:30:28.770Z,45.65
2022-08-05T17:35:21.167Z,45.85
2022-08-05T17:40:16.096Z,46.10
2022-08-05T17:45:17.813Z,46.21
2022-08-05T17:50:12.759Z,45.03
2022-08-05T17:55:04.671Z,44.90
2022-08-05T18:00:03.470Z,46.14
2022-08-05T18:04:57.368Z,46.69
2022-08-05T18:09:58.935Z,47.31
2022-08-05T18:14:52.188Z,47.13
2022-08-05T18:19:44.617Z,48.34
2022-08-05T18:24:43.017Z,47.97
2022-08-05T18:29:41.265Z,47.67
2022-08-05T18:34:40.783Z,48.02
2022-08-05T18:40:29.484Z,48.26
2022-08-05T18:44:51.397Z,48.61
2022-08-05T18:50:10.680Z,49.04
2022-08-05T18:55:06.118Z,49.92
2022-08-05T19:00:11.723Z,49.99
2022-08-05T19:06:06.371Z,49.97
2022-08-05T19:10:28.011Z,50.19
2022-08-05T19:15:56.947Z,50.27
2022-08-05T19:20:32.405Z,50.56
2022-08-05T19:25:30.235Z,51.03
2022-08-05T19:30:22.466Z,50.96
2022-08-05T19:35:15.638Z,51.08
2022-08-05T19:40:10.338Z,51.02
2022-08-05T19:45:02.369Z,51.94
2022-08-05T19:50:00.907Z,52.01
2022-08-05T19:54:52.601Z,52.42
2022-08-05T20:00:00.448Z,52.98
2022-08-05T20:04:58.939Z,52.92
2022-08-05T20:09:54.582Z,53.52
2022-08-05T20:14:50.097Z,54.06
2022-08-05T20:19:44.237Z,54.42
2022-08-05T20:24:35.889Z,54.59
2022-08-05T20:29:27.963Z,54.98
2022-08-05T20:34:20.051Z,55.24
2022-08-05T20:39:16.709Z,55.71
2022-08-05T20:44:18.863Z,55.74
2022-08-05T20:49:24.175Z,56.80
2022-08-05T20:54:17.744Z,57.06
2022-08-05T20:59:15.930Z,57.72
2022-08-05T21:04:11.586Z,57.98
2022-08-05T21:09:06.084Z,58.83
2022-08-05T21:13:58.727Z,58.79
2022-08-05T21:18:50.548Z,59.17
2022-08-05T21:23:42.169Z,59.08
2022-08-05T21:28:33.931Z,59.26
2022-08-05T21:33:25.607Z,59.41
2022-08-05T21:38:29.221Z,59.63
2022-08-05T21:43:24.099Z,59.76
2022-08-05T21:48:16.906Z,59.93
2022-08-05T21:53:17.610Z,60.63
2022-08-05T21:58:10.537Z,60.48
2022-08-05T22:03:03.454Z,60.91
2022-08-05T22:08:02.015Z,61.21
2022-08-05T22:12:57.224Z,60.84
2022-08-05T22:17:59.878Z,60.94
2022-08-05T22:23:17.045Z,61.59
2022-08-05T22:28:13.161Z,61.22
2022-08-05T22:33:15.565Z,61.39
2022-08-05T22:38:07.849Z,62.29
2022-08-05T22:43:01.682Z,62.58
2022-08-05T22:47:57.228Z,62.99
2022-08-05T22:52:50.376Z,62.55
2022-08-05T22:57:43.320Z,62.63
2022-08-05T23:02:38.440Z,62.56
2022-08-05T23:07:48.232Z,62.56
2022-08-05T23:12:43.179Z,63.25
2022-08-05T23:17:37.556Z,63.08
2022-08-05T23:22:48.220Z,63.33
2022-08-05T23:27:42.477Z,63.80
2022-08-05T23:32:49.812Z,63.56
2022-08-05T23:37:42.076Z,64.29
2022-08-05T23:42:37.364Z,64.82
2022-08-05T23:47:29.409Z,64.28
2022-08-05T23:52:32.525Z,64.22
2022-08-05T23:57:28.491Z,64.91
